createdAt,value
2023-08-16T00:02:20.536Z,3.90
2023-08-16T00:04:47.259Z,3.97
2023-08-16T00:07:14.223Z,4.05
2023-08-16T00:09:40.997Z,4.50
2023-08-16T00:12:08.229Z,4.38
2023-08-16T00:14:34.855Z,4.00
2023-08-16T00:17:01.498Z,3.92
2023-08-16T00:19:28.121Z,4.07
2023-08-16T00:21:54.621Z,3.80
2023-08-16T00:24:21.208Z,3.88
2023-08-16T00:26:47.849Z,4.00
2023-08-16T00:29:14.458Z,4.03
2023-08-16T00:31:41.256Z,4.40
2023-08-16T00:34:07.857Z,4.45
2023-08-16T00:36:34.432Z,3.97
2023-08-16T00:39:01.056Z,4.18
2023-08-16T00:41:27.622Z,5.28
2023-08-16T00:43:54.165Z,4.95
2023-08-16T00:46:21.019Z,4.28
2023-08-16T00:48:47.673Z,4.47
2023-08-16T00:51:15.154Z,4.30
2023-08-16T00:53:43.459Z,5.03
2023-08-16T00:56:10.329Z,4.82
2023-08-16T00:58:36.907Z,5.05
2023-08-16T01:01:03.636Z,5.15
2023-08-16T01:03:30.732Z,3.63
2023-08-16T01:05:57.509Z,4.65
2023-08-16T01:08:24.152Z,4.70
2023-08-16T01:10:54.107Z,4.70
2023-08-16T01:13:27.816Z,4.90
2023-08-16T01:15:57.844Z,4.30
2023-08-16T01:18:26.412Z,4.50
2023-08-16T01:20:54.866Z,4.80
2023-08-16T01:23:25.200Z,4.20
2023-08-16T01:26:01.556Z,4.47
2023-08-16T01:28:29.901Z,4.47
2023-08-16T01:31:04.847Z,5.28
2023-08-16T01:33:31.497Z,4.40
2023-08-16T01:35:58.450Z,4.25
2023-08-16T01:38:26.509Z,4.80
2023-08-16T01:41:00.577Z,4.40
2023-08-16T01:43:28.563Z,4.43
2023-08-16T01:45:56.026Z,4.82
2023-08-16T01:48:24.346Z,4.65
2023-08-16T01:50:51.306Z,5.18
2023-08-16T01:53:19.474Z,4.93
2023-08-16T01:55:46.393Z,5.25
2023-08-16T01:58:12.933Z,4.50
2023-08-16T02:00:39.480Z,4.78
2023-08-16T02:03:06.076Z,5.45
2023-08-16T02:05:32.682Z,4.57
2023-08-16T02:07:59.266Z,5.43
2023-08-16T02:10:26.045Z,4.88
2023-08-16T02:12:52.580Z,5.40
2023-08-16T02:15:19.100Z,4.45
2023-08-16T02:17:45.650Z,6.07
2023-08-16T02:20:13.785Z,5.72
2023-08-16T02:22:43.148Z,7.07
2023-08-16T02:27:36.946Z,5.50
2023-08-16T02:30:03.909Z,6.30
2023-08-16T02:32:30.443Z,5.35
2023-08-16T02:34:57.020Z,6.93
2023-08-16T02:37:24.759Z,6.63
2023-08-16T02:39:51.646Z,7.32
2023-08-16T02:42:18.145Z,5.65
2023-08-16T02:44:44.878Z,6.35
2023-08-16T02:47:11.376Z,7.03
2023-08-16T02:49:37.911Z,7.30
2023-08-16T02:52:04.761Z,6.13
2023-08-16T02:54:31.411Z,5.78
2023-08-16T02:56:57.920Z,5.60
2023-08-16T02:59:24.507Z,5.57
2023-08-16T03:01:52.457Z,5.30
2023-08-16T03:04:19.020Z,4.53
2023-08-16T03:06:45.682Z,5.22
2023-08-16T03:09:12.203Z,4.55
2023-08-16T03:11:38.705Z,5.75
2023-08-16T03:14:05.452Z,5.35
2023-08-16T03:16:32.007Z,5.32
2023-08-16T03:18:59.935Z,5.80
2023-08-16T03:21:26.462Z,4.70
2023-08-16T03:23:52.988Z,5.15
2023-08-16T03:26:19.511Z,6.10
2023-08-16T03:28:46.077Z,6.22
2023-08-16T03:31:12.678Z,6.10
2023-08-16T03:33:39.191Z,5.60
2023-08-16T03:36:05.975Z,4.75
2023-08-16T03:38:32.500Z,5.78
2023-08-16T03:40:59.080Z,5.38
2023-08-16T03:43:25.899Z,5.70
2023-08-16T03:45:52.462Z,5.55
2023-08-16T03:48:19.121Z,5.22
2023-08-16T03:50:45.705Z,5.95
2023-08-16T03:53:12.653Z,6.25
2023-08-16T03:55:39.246Z,6.03
2023-08-16T03:58:06.211Z,6.32
2023-08-16T04:00:33.040Z,4.70
2023-08-16T04:02:59.789Z,4.65
2023-08-16T04:05:26.454Z,5.90
2023-08-16T04:07:52.985Z,4.90
2023-08-16T04:10:19.654Z,4.68
2023-08-16T04:12:46.220Z,4.65
2023-08-16T04:15:12.904Z,4.70
2023-08-16T04:17:40.364Z,5.45
2023-08-16T04:20:08.929Z,7.18
2023-08-16T04:22:36.177Z,5.50
2023-08-16T04:25:02.851Z,4.70
2023-08-16T04:27:29.415Z,4.90
2023-08-16T04:29:56.018Z,4.68
2023-08-16T04:32:22.725Z,4.80
2023-08-16T04:34:49.286Z,4.45
2023-08-16T04:37:15.822Z,5.85
2023-08-16T04:39:42.337Z,5.85
2023-08-16T04:42:08.837Z,5.32
2023-08-16T04:44:35.379Z,5.82
2023-08-16T04:47:01.950Z,5.18
2023-08-16T04:49:29.431Z,4.97
2023-08-16T04:51:56.382Z,6.03
2023-08-16T04:54:23.108Z,5.38
2023-08-16T04:56:50.784Z,4.32
2023-08-16T04:59:17.834Z,4.30
2023-08-16T05:01:45.164Z,4.20
2023-08-16T05:04:11.809Z,5.05
2023-08-16T05:06:38.766Z,4.43
2023-08-16T05:09:06.244Z,4.45
2023-08-16T05:11:32.990Z,4.10
2023-08-16T05:13:59.604Z,4.35
2023-08-16T05:16:26.531Z,3.85
2023-08-16T05:18:55.890Z,3.60
2023-08-16T05:21:22.454Z,4.63
2023-08-16T05:23:48.972Z,4.82
2023-08-16T05:26:15.612Z,4.50
2023-08-16T05:28:42.276Z,4.28
2023-08-16T05:31:12.676Z,3.95
2023-08-16T05:33:40.176Z,4.18
2023-08-16T05:36:07.912Z,4.63
2023-08-16T05:38:34.792Z,4.32
2023-08-16T05:41:04.233Z,4.53
2023-08-16T05:43:31.459Z,4.35
2023-08-16T05:45:58.025Z,3.95
2023-08-16T05:48:24.546Z,5.10
2023-08-16T05:50:51.081Z,4.90
2023-08-16T05:53:17.631Z,4.55
2023-08-16T05:55:44.296Z,4.88
2023-08-16T05:58:10.813Z,4.88
2023-08-16T06:00:37.406Z,3.80
2023-08-16T06:03:04.860Z,4.60
2023-08-16T06:05:31.435Z,4.88
2023-08-16T06:07:58.740Z,4.15
2023-08-16T06:10:25.278Z,4.20
2023-08-16T06:12:51.834Z,5.00
2023-08-16T06:15:18.414Z,4.78
2023-08-16T06:17:44.946Z,5.35
2023-08-16T06:20:11.991Z,3.75
2023-08-16T06:22:38.520Z,4.72
2023-08-16T06:25:06.820Z,4.32
2023-08-16T06:27:34.315Z,3.92
2023-08-16T06:30:01.474Z,4.82
2023-08-16T06:32:28.274Z,4.38
2023-08-16T06:34:54.801Z,4.80
2023-08-16T06:37:22.468Z,3.83
2023-08-16T06:39:49.490Z,4.22
2023-08-16T06:42:16.134Z,4.57
2023-08-16T06:44:42.746Z,5.32
2023-08-16T06:47:09.285Z,4.97
2023-08-16T06:49:35.810Z,3.70
2023-08-16T06:52:02.442Z,4.80
2023-08-16T06:54:29.029Z,4.75
2023-08-16T06:56:59.038Z,4.07
2023-08-16T06:59:26.317Z,4.43
2023-08-16T07:01:52.855Z,5.15
2023-08-16T07:04:19.833Z,3.60
2023-08-16T07:06:46.377Z,4.43
2023-08-16T07:09:12.925Z,5.03
2023-08-16T07:11:39.448Z,4.00
2023-08-16T07:14:06.110Z,5.05
2023-08-16T07:16:33.884Z,3.88
2023-08-16T07:19:00.509Z,5.07
2023-08-16T07:21:27.479Z,4.05
2023-08-16T07:23:54.092Z,4.40
2023-08-16T07:26:20.677Z,4.80
2023-08-16T07:28:47.267Z,4.30
2023-08-16T07:31:13.851Z,3.80
2023-08-16T07:33:41.961Z,4.38
2023-08-16T07:36:08.748Z,4.80
2023-08-16T07:38:35.328Z,3.20
2023-08-16T07:41:02.417Z,4.10
2023-08-16T07:43:30.198Z,4.60
2023-08-16T07:45:57.916Z,4.43
2023-08-16T07:48:24.988Z,3.60
2023-08-16T07:50:51.892Z,3.47
2023-08-16T07:53:18.698Z,4.60
2023-08-16T07:55:45.420Z,4.53
2023-08-16T07:58:14.991Z,4.65
2023-08-16T08:00:41.501Z,3.70
2023-08-16T08:03:09.815Z,4.45
2023-08-16T08:05:37.022Z,3.90
2023-08-16T08:08:05.524Z,3.70
2023-08-16T08:10:33.269Z,3.80
2023-08-16T08:12:59.907Z,3.80
2023-08-16T08:15:26.779Z,3.60
2023-08-16T08:17:53.581Z,3.78
2023-08-16T08:20:20.295Z,3.70
2023-08-16T08:22:46.886Z,3.30
2023-08-16T08:25:13.731Z,3.75
2023-08-16T08:27:40.410Z,3.83
2023-08-16T08:30:08.640Z,3.40
2023-08-16T08:32:35.280Z,3.80
2023-08-16T08:35:03.738Z,3.10
2023-08-16T08:37:31.484Z,3.72
2023-08-16T08:39:58.773Z,3.47
2023-08-16T08:42:26.372Z,3.80
2023-08-16T08:44:54.265Z,3.67
2023-08-16T08:47:20.834Z,4.00
2023-08-16T08:49:49.320Z,3.28
2023-08-16T08:52:17.057Z,3.67
2023-08-16T08:54:43.630Z,3.47
2023-08-16T08:57:11.619Z,3.30
2023-08-16T08:59:44.777Z,3.17
2023-08-16T09:02:12.099Z,3.55
2023-08-16T09:04:39.458Z,3.22
2023-08-16T09:07:09.168Z,2.80
2023-08-16T09:12:02.788Z,2.90
2023-08-16T09:14:30.008Z,3.13
2023-08-16T09:16:56.572Z,2.83
2023-08-16T09:19:23.740Z,2.67
2023-08-16T09:21:52.696Z,3.38
2023-08-16T09:24:25.093Z,3.75
2023-08-16T09:26:53.449Z,3.22
2023-08-16T09:29:20.028Z,3.42
2023-08-16T09:31:48.029Z,3.25
2023-08-16T09:34:14.773Z,3.55
2023-08-16T09:36:47.248Z,6.13
2023-08-16T09:39:13.849Z,5.72
2023-08-16T09:41:51.297Z,3.72
2023-08-16T09:44:18.833Z,3.22
2023-08-16T09:49:16.812Z,2.63
2023-08-16T09:54:14.773Z,3.75
2023-08-16T09:57:29.419Z,3.15
2023-08-16T10:09:35.348Z,3.33
2023-08-16T10:12:03.813Z,3.20
2023-08-16T10:14:34.715Z,3.15
2023-08-16T10:17:07.304Z,2.92
2023-08-16T10:19:35.367Z,3.47
2023-08-16T10:22:09.305Z,3.30
2023-08-16T10:24:50.747Z,3.38
2023-08-16T10:27:20.998Z,3.03
2023-08-16T10:29:53.851Z,3.63
2023-08-16T10:32:26.549Z,3.00
2023-08-16T10:34:56.401Z,3.22
2023-08-16T10:37:25.940Z,3.58
2023-08-16T10:42:27.652Z,3.50
2023-08-16T10:44:54.536Z,2.80
2023-08-16T10:47:31.354Z,3.33
2023-08-16T10:50:01.116Z,3.28
2023-08-16T10:57:27.108Z,2.78
2023-08-16T11:00:05.609Z,3.17
2023-08-16T11:02:32.909Z,2.78
2023-08-16T11:05:04.965Z,3.30
2023-08-16T11:07:31.722Z,3.25
2023-08-16T11:10:01.725Z,2.78
2023-08-16T11:12:32.072Z,2.70
2023-08-16T11:14:59.378Z,2.92
2023-08-16T11:17:30.649Z,4.15
2023-08-16T11:19:57.799Z,3.53
2023-08-16T11:22:26.516Z,2.70
2023-08-16T11:24:56.334Z,3.17
2023-08-16T11:27:24.006Z,3.05
2023-08-16T11:29:51.540Z,2.70
2023-08-16T11:32:32.675Z,3.15
2023-08-16T11:34:59.450Z,2.85
2023-08-16T11:37:26.071Z,2.53
2023-08-16T11:40:05.769Z,2.60
2023-08-16T11:42:32.407Z,2.80
2023-08-16T11:44:58.963Z,2.58
2023-08-16T11:47:25.923Z,2.88
2023-08-16T11:49:54.968Z,2.90
2023-08-16T11:52:25.377Z,2.95
2023-08-16T11:55:02.897Z,2.10
2023-08-16T11:57:29.494Z,2.58
2023-08-16T11:59:56.984Z,2.92
2023-08-16T12:02:24.795Z,3.20
2023-08-16T12:04:52.276Z,2.60
2023-08-16T12:07:19.062Z,2.50
2023-08-16T12:09:48.222Z,3.10
2023-08-16T12:12:15.222Z,2.60
2023-08-16T12:14:41.760Z,3.30
2023-08-16T12:17:08.326Z,2.70
2023-08-16T12:19:34.978Z,2.88
2023-08-16T12:22:02.746Z,3.42
2023-08-16T12:24:29.923Z,3.20
2023-08-16T12:26:56.483Z,3.17
2023-08-16T12:29:23.036Z,3.88
2023-08-16T12:31:50.431Z,3.10
2023-08-16T12:34:16.961Z,2.70
2023-08-16T12:36:46.216Z,2.70
2023-08-16T12:39:13.056Z,2.80
2023-08-16T12:41:39.566Z,2.58
2023-08-16T12:44:06.397Z,2.80
2023-08-16T12:46:33.047Z,2.80
2023-08-16T12:49:00.361Z,3.08
2023-08-16T12:51:28.570Z,2.75
2023-08-16T12:53:55.134Z,2.85
2023-08-16T12:56:21.960Z,2.53
2023-08-16T13:01:19.771Z,2.90
2023-08-16T13:06:30.624Z,3.60
2023-08-16T13:09:03.097Z,3.38
2023-08-16T13:11:34.624Z,3.28
2023-08-16T13:14:11.329Z,4.00
2023-08-16T13:19:24.337Z,3.50
2023-08-16T13:21:54.783Z,5.25
2023-08-16T13:24:38.064Z,4.18
2023-08-16T13:27:17.306Z,3.75
2023-08-16T13:29:57.695Z,4.25
2023-08-16T13:32:32.403Z,4.50
2023-08-16T13:35:11.964Z,3.75
2023-08-16T13:40:20.376Z,3.90
2023-08-16T13:42:56.169Z,3.53
2023-08-16T13:45:23.168Z,3.33
2023-08-16T13:47:51.267Z,3.42
2023-08-16T13:50:17.977Z,3.80
2023-08-16T13:52:44.491Z,4.25
2023-08-16T13:55:12.890Z,3.67
2023-08-16T13:57:39.422Z,3.75
2023-08-16T14:00:08.856Z,3.42
2023-08-16T14:02:35.450Z,4.20
2023-08-16T14:05:02.104Z,4.43
2023-08-16T14:07:28.686Z,3.22
2023-08-16T14:09:55.262Z,3.50
2023-08-16T14:12:21.864Z,3.65
2023-08-16T14:14:48.423Z,4.28
2023-08-16T14:17:15.080Z,3.40
2023-08-16T14:19:42.262Z,3.33
2023-08-16T14:22:08.836Z,3.35
2023-08-16T14:24:35.433Z,3.00
2023-08-16T14:27:01.979Z,2.88
2023-08-16T14:29:28.558Z,3.17
2023-08-16T14:31:55.062Z,3.22
2023-08-16T14:34:21.631Z,3.42
2023-08-16T14:36:48.322Z,3.17
2023-08-16T14:39:14.853Z,2.15
2023-08-16T14:41:41.456Z,2.40
2023-08-16T14:44:08.022Z,1.92
2023-08-16T14:46:34.717Z,2.88
2023-08-16T14:49:01.320Z,2.80
2023-08-16T14:51:27.855Z,2.47
2023-08-16T14:53:54.363Z,2.47
2023-08-16T14:56:22.227Z,2.22
2023-08-16T14:58:49.163Z,2.42
2023-08-16T15:01:15.785Z,2.53
2023-08-16T15:03:42.447Z,2.00
2023-08-16T15:06:09.103Z,2.10
2023-08-16T15:08:37.110Z,2.25
2023-08-16T15:11:17.935Z,1.85
2023-08-16T15:13:45.291Z,1.90
2023-08-16T15:16:14.191Z,2.65
2023-08-16T15:18:40.812Z,2.40
2023-08-16T15:21:13.059Z,2.50
2023-08-16T15:23:40.807Z,2.58
2023-08-16T15:26:09.134Z,2.00
2023-08-16T15:28:37.449Z,3.10
2023-08-16T15:31:05.351Z,4.45
2023-08-16T15:33:32.003Z,3.70
2023-08-16T15:35:58.663Z,3.08
2023-08-16T15:38:37.449Z,3.40
2023-08-16T15:41:04.167Z,5.03
2023-08-16T15:43:31.126Z,4.85
2023-08-16T15:45:57.699Z,4.45
2023-08-16T15:48:24.264Z,3.30
2023-08-16T15:50:55.744Z,4.22
2023-08-16T15:53:23.601Z,4.80
2023-08-16T15:55:51.025Z,3.75
2023-08-16T15:58:17.603Z,2.53
2023-08-16T16:00:45.583Z,2.25
2023-08-16T16:03:12.199Z,2.20
2023-08-16T16:05:38.742Z,3.05
2023-08-16T16:08:05.640Z,3.90
2023-08-16T16:10:32.227Z,5.60
2023-08-16T16:13:00.461Z,4.50
2023-08-16T16:15:27.119Z,3.08
2023-08-16T16:17:53.697Z,3.88
2023-08-16T16:20:20.308Z,2.58
2023-08-16T16:22:46.852Z,2.70
2023-08-16T16:25:13.452Z,2.80
2023-08-16T16:27:39.991Z,2.60
2023-08-16T16:30:07.359Z,2.58
2023-08-16T16:32:33.972Z,2.80
2023-08-16T16:35:00.615Z,2.72
2023-08-16T16:37:27.155Z,2.60
2023-08-16T16:39:53.665Z,2.80
2023-08-16T16:46:15.344Z,3.00
2023-08-16T16:48:41.986Z,2.90
2023-08-16T16:51:20.982Z,3.03
2023-08-16T16:53:47.498Z,2.83
2023-08-16T16:56:14.043Z,3.63
2023-08-16T16:58:40.550Z,3.63
2023-08-16T17:01:07.120Z,3.88
2023-08-16T17:03:34.864Z,2.47
2023-08-16T17:06:04.780Z,3.63
2023-08-16T17:08:31.325Z,3.28
2023-08-16T17:10:57.889Z,3.83
2023-08-16T17:13:26.670Z,4.05
2023-08-16T17:15:54.587Z,4.00
2023-08-16T17:18:21.139Z,4.20
2023-08-16T17:20:48.768Z,3.65
2023-08-16T17:23:16.157Z,3.50
2023-08-16T17:25:45.646Z,5.32
2023-08-16T17:31:53.871Z,3.63
2023-08-16T17:34:20.890Z,3.35
2023-08-16T17:36:47.476Z,3.60
2023-08-16T17:39:14.599Z,3.53
2023-08-16T17:41:41.283Z,4.10
2023-08-16T17:44:09.655Z,3.40
2023-08-16T17:46:36.440Z,3.38
2023-08-16T17:49:03.083Z,3.50
2023-08-16T17:51:29.927Z,3.22
2023-08-16T17:53:56.447Z,2.97
2023-08-16T17:56:23.030Z,3.55
2023-08-16T17:58:51.802Z,3.45
2023-08-16T18:01:18.573Z,3.70
2023-08-16T18:03:46.912Z,4.03
2023-08-16T18:06:13.475Z,4.57
2023-08-16T18:08:40.171Z,4.40
2023-08-16T18:11:06.755Z,4.78
2023-08-16T18:13:33.440Z,4.47
2023-08-16T18:16:00.753Z,4.60
2023-08-16T18:18:28.297Z,4.03
2023-08-16T18:20:55.250Z,4.13
2023-08-16T18:23:24.836Z,3.58
2023-08-16T18:25:51.775Z,4.45
2023-08-16T18:28:20.528Z,4.30
2023-08-16T18:30:50.394Z,4.72
2023-08-16T18:33:17.444Z,5.07
2023-08-16T18:35:44.051Z,7.15
2023-08-16T18:38:10.607Z,7.75
2023-08-16T18:40:37.209Z,5.43
2023-08-16T18:43:03.961Z,5.05
2023-08-16T18:45:30.532Z,4.45
2023-08-16T18:47:57.116Z,4.28
2023-08-16T18:50:23.714Z,4.28
2023-08-16T18:52:50.306Z,4.38
2023-08-16T18:55:16.940Z,4.35
2023-08-16T18:57:43.586Z,4.47
2023-08-16T19:00:11.521Z,4.28
2023-08-16T19:02:38.259Z,4.10
2023-08-16T19:05:05.188Z,5.10
2023-08-16T19:07:31.714Z,5.20
2023-08-16T19:09:58.253Z,4.72
2023-08-16T19:12:25.483Z,4.68
2023-08-16T19:14:53.054Z,6.70
2023-08-16T19:17:19.736Z,8.07
2023-08-16T19:19:47.165Z,5.82
2023-08-16T19:22:13.895Z,5.78
2023-08-16T19:24:40.549Z,5.28
2023-08-16T19:27:07.239Z,4.80
2023-08-16T19:29:33.968Z,4.93
2023-08-16T19:32:00.892Z,4.80
2023-08-16T19:34:27.455Z,4.55
2023-08-16T19:36:54.056Z,4.60
2023-08-16T19:39:20.579Z,5.00
2023-08-16T19:41:47.119Z,5.03
2023-08-16T19:44:13.722Z,6.38
2023-08-16T19:46:40.647Z,5.95
2023-08-16T19:49:09.314Z,5.40
2023-08-16T19:51:35.840Z,5.20
2023-08-16T19:54:02.396Z,4.30
2023-08-16T19:56:28.986Z,4.45
2023-08-16T19:58:57.626Z,4.53
2023-08-16T20:01:24.574Z,4.28
2023-08-16T20:03:51.255Z,4.93
2023-08-16T20:06:17.887Z,5.20
2023-08-16T20:08:44.388Z,4.63
2023-08-16T20:11:11.169Z,4.95
2023-08-16T20:13:37.714Z,5.20
2023-08-16T20:16:04.630Z,4.68
2023-08-16T20:18:31.303Z,5.50
2023-08-16T20:20:57.882Z,5.28
2023-08-16T20:23:24.428Z,5.07
2023-08-16T20:25:50.995Z,4.93
2023-08-16T20:32:23.867Z,4.32
2023-08-16T20:49:35.989Z,5.70
2023-08-16T20:52:27.574Z,5.22
2023-08-16T20:54:59.370Z,4.53
2023-08-16T20:57:27.222Z,7.07
2023-08-16T20:59:54.013Z,5.32
2023-08-16T21:02:20.683Z,5.40
2023-08-16T21:04:58.473Z,5.15
2023-08-16T21:07:30.415Z,5.30
2023-08-16T21:09:56.959Z,5.00
2023-08-16T21:12:23.537Z,5.05
2023-08-16T21:14:51.357Z,4.90
2023-08-16T21:17:21.941Z,5.40
2023-08-16T21:19:48.480Z,4.90
2023-08-16T21:22:15.022Z,5.03
2023-08-16T21:24:41.600Z,5.10
2023-08-16T21:27:08.214Z,5.18
2023-08-16T21:29:34.893Z,5.18
2023-08-16T21:32:01.549Z,5.00
2023-08-16T21:34:28.144Z,4.93
2023-08-16T21:39:39.341Z,4.90
2023-08-16T21:42:05.918Z,4.55
2023-08-16T21:44:32.516Z,4.78
2023-08-16T21:46:59.030Z,5.22
2023-08-16T21:49:25.898Z,5.28
2023-08-16T21:51:52.444Z,5.82
2023-08-16T21:54:19.002Z,6.53
2023-08-16T21:59:29.406Z,6.40
2023-08-16T22:01:55.977Z,7.30
2023-08-16T22:04:22.582Z,6.60
2023-08-16T22:06:49.144Z,7.82
2023-08-16T22:09:16.345Z,6.72
2023-08-16T22:11:43.045Z,6.32
2023-08-16T22:14:11.577Z,5.50
2023-08-16T22:16:38.167Z,5.90
2023-08-16T22:19:04.985Z,5.63
2023-08-16T22:21:31.606Z,5.60
2023-08-16T22:23:58.635Z,5.32
2023-08-16T22:26:26.084Z,5.45
2023-08-16T22:28:56.828Z,4.38
2023-08-16T22:31:24.564Z,5.00
2023-08-16T22:33:51.249Z,5.93
2023-08-16T22:36:17.861Z,6.03
2023-08-16T22:41:29.071Z,5.82
2023-08-16T22:43:55.893Z,5.43
2023-08-16T22:46:22.517Z,5.30
2023-08-16T22:48:49.136Z,5.85
2023-08-16T22:51:15.701Z,5.35
2023-08-16T22:53:42.216Z,5.00
2023-08-16T22:56:08.785Z,5.93
2023-08-16T22:58:35.438Z,5.68
2023-08-16T23:01:02.028Z,5.45
2023-08-16T23:03:28.602Z,5.70
2023-08-16T23:05:55.250Z,5.10
2023-08-16T23:08:22.056Z,6.13
2023-08-16T23:10:48.581Z,5.55
2023-08-16T23:13:15.175Z,5.57
2023-08-16T23:15:41.792Z,4.55
2023-08-16T23:18:08.382Z,5.30
2023-08-16T23:20:35.998Z,4.40
2023-08-16T23:23:02.612Z,4.40
2023-08-16T23:25:29.173Z,4.85
2023-08-16T23:27:55.729Z,4.82
2023-08-16T23:30:22.285Z,6.13
2023-08-16T23:32:48.988Z,5.82
2023-08-16T23:35:17.242Z,5.55
2023-08-16T23:37:44.075Z,5.05
2023-08-16T23:40:12.479Z,5.20
2023-08-16T23:42:39.142Z,4.88
2023-08-16T23:45:06.147Z,3.83
2023-08-16T23:47:32.739Z,5.13
2023-08-16T23:49:59.437Z,5.97
2023-08-16T23:52:26.087Z,4.82
2023-08-16T23:54:52.839Z,5.45
2023-08-16T23:57:20.022Z,5.85
2023-08-16T23:59:46.775Z,6.13
